sensor_id;sensor_type;location;lat;lon;timestamp;P1;durP1;ratioP1;P2;durP2;ratioP2
16484;SDS011;8353;47.856;12.344;2023-11-21T00:00:20;2.43;;;1.10;;
16484;SDS011;8353;47.856;12.344;2023-11-21T00:03:08;2.03;;;0.90;;
16484;SDS011;8353;47.856;12.344;2023-11-21T00:05:56;2.60;;;1.03;;
16484;SDS011;8353;47.856;12.344;2023-11-21T00:08:43;2.20;;;1.10;;
16484;SDS011;8353;47.856;12.344;2023-11-21T00:11:30;3.87;;;1.10;;
16484;SDS011;8353;47.856;12.344;2023-11-21T00:14:17;2.00;;;0.97;;
16484;SDS011;8353;47.856;12.344;2023-11-21T00:17:03;3.27;;;1.30;;
16484;SDS011;8353;47.856;12.344;2023-11-21T00:19:52;3.77;;;1.37;;
16484;SDS011;8353;47.856;12.344;2023-11-21T00:22:39;1.57;;;0.97;;
16484;SDS011;8353;47.856;12.344;2023-11-21T00:25:26;4.07;;;1.00;;
16484;SDS011;8353;47.856;12.344;2023-11-21T00:28:13;2.43;;;0.97;;
16484;SDS011;8353;47.856;12.344;2023-11-21T00:31:02;2.63;;;1.03;;
16484;SDS011;8353;47.856;12.344;2023-11-21T00:33:49;5.57;;;1.43;;
16484;SDS011;8353;47.856;12.344;2023-11-21T00:36:37;3.47;;;1.10;;
16484;SDS011;8353;47.856;12.344;2023-11-21T00:39:24;4.57;;;1.10;;
16484;SDS011;8353;47.856;12.344;2023-11-21T00:42:11;2.97;;;0.93;;
16484;SDS011;8353;47.856;12.344;2023-11-21T00:44:58;2.03;;;1.00;;
16484;SDS011;8353;47.856;12.344;2023-11-21T00:47:45;4.20;;;1.17;;
16484;SDS011;8353;47.856;12.344;2023-11-21T00:50:31;3.03;;;0.87;;
16484;SDS011;8353;47.856;12.344;2023-11-21T00:53:19;2.23;;;0.93;;
16484;SDS011;8353;47.856;12.344;2023-11-21T00:56:06;2.83;;;0.90;;
16484;SDS011;8353;47.856;12.344;2023-11-21T00:58:53;2.43;;;1.20;;
16484;SDS011;8353;47.856;12.344;2023-11-21T01:01:40;1.20;;;0.70;;
16484;SDS011;8353;47.856;12.344;2023-11-21T01:04:27;4.83;;;1.20;;
16484;SDS011;8353;47.856;12.344;2023-11-21T01:07:14;3.90;;;1.40;;
16484;SDS011;8353;47.856;12.344;2023-11-21T01:10:02;2.93;;;0.70;;
16484;SDS011;8353;47.856;12.344;2023-11-21T01:12:50;3.20;;;1.10;;
16484;SDS011;8353;47.856;12.344;2023-11-21T01:15:37;4.67;;;1.20;;
16484;SDS011;8353;47.856;12.344;2023-11-21T01:18:24;2.10;;;0.97;;
16484;SDS011;8353;47.856;12.344;2023-11-21T01:21:11;3.87;;;1.00;;
16484;SDS011;8353;47.856;12.344;2023-11-21T01:23:58;3.23;;;1.10;;
16484;SDS011;8353;47.856;12.344;2023-11-21T01:26:46;3.30;;;1.30;;
16484;SDS011;8353;47.856;12.344;2023-11-21T01:29:32;2.40;;;1.17;;
16484;SDS011;8353;47.856;12.344;2023-11-21T01:32:20;3.27;;;1.10;;
16484;SDS011;8353;47.856;12.344;2023-11-21T01:35:07;1.70;;;0.73;;
16484;SDS011;8353;47.856;12.344;2023-11-21T01:37:55;2.03;;;0.97;;
16484;SDS011;8353;47.856;12.344;2023-11-21T01:40:42;4.23;;;0.80;;
16484;SDS011;8353;47.856;12.344;2023-11-21T01:43:30;1.57;;;0.87;;
16484;SDS011;8353;47.856;12.344;2023-11-21T01:46:17;1.23;;;0.83;;
16484;SDS011;8353;47.856;12.344;2023-11-21T01:49:12;0.73;;;0.70;;
16484;SDS011;8353;47.856;12.344;2023-11-21T01:52:00;3.03;;;0.93;;
16484;SDS011;8353;47.856;12.344;2023-11-21T01:54:47;1.77;;;0.70;;
16484;SDS011;8353;47.856;12.344;2023-11-21T01:57:34;3.43;;;1.00;;
16484;SDS011;8353;47.856;12.344;2023-11-21T02:00:24;2.97;;;0.90;;
16484;SDS011;8353;47.856;12.344;2023-11-21T02:03:13;3.47;;;1.30;;
16484;SDS011;8353;47.856;12.344;2023-11-21T02:05:59;1.87;;;0.80;;
16484;SDS011;8353;47.856;12.344;2023-11-21T02:08:46;4.07;;;1.20;;
16484;SDS011;8353;47.856;12.344;2023-11-21T02:11:34;1.77;;;0.90;;
16484;SDS011;8353;47.856;12.344;2023-11-21T02:14:20;2.87;;;1.20;;
16484;SDS011;8353;47.856;12.344;2023-11-21T02:17:09;3.23;;;0.93;;
16484;SDS011;8353;47.856;12.344;2023-11-21T02:19:57;5.17;;;1.30;;
16484;SDS011;8353;47.856;12.344;2023-11-21T02:22:48;2.87;;;1.37;;
16484;SDS011;8353;47.856;12.344;2023-11-21T02:25:37;2.10;;;1.20;;
16484;SDS011;8353;47.856;12.344;2023-11-21T02:28:24;4.10;;;0.90;;
16484;SDS011;8353;47.856;12.344;2023-11-21T02:31:11;1.00;;;0.80;;
16484;SDS011;8353;47.856;12.344;2023-11-21T02:33:58;1.87;;;1.27;;
16484;SDS011;8353;47.856;12.344;2023-11-21T02:36:45;2.80;;;1.10;;
16484;SDS011;8353;47.856;12.344;2023-11-21T02:39:33;2.83;;;1.20;;
16484;SDS011;8353;47.856;12.344;2023-11-21T02:42:20;3.73;;;1.27;;
16484;SDS011;8353;47.856;12.344;2023-11-21T02:45:07;1.63;;;0.90;;
16484;SDS011;8353;47.856;12.344;2023-11-21T02:47:57;3.60;;;0.80;;
16484;SDS011;8353;47.856;12.344;2023-11-21T02:50:44;2.00;;;1.03;;
16484;SDS011;8353;47.856;12.344;2023-11-21T02:53:31;1.33;;;1.10;;
16484;SDS011;8353;47.856;12.344;2023-11-21T02:56:19;2.07;;;1.00;;
16484;SDS011;8353;47.856;12.344;2023-11-21T02:59:06;2.23;;;1.00;;
16484;SDS011;8353;47.856;12.344;2023-11-21T03:01:52;2.90;;;1.03;;
16484;SDS011;8353;47.856;12.344;2023-11-21T03:04:39;0.70;;;0.70;;
16484;SDS011;8353;47.856;12.344;2023-11-21T03:07:27;4.03;;;1.20;;
16484;SDS011;8353;47.856;12.344;2023-11-21T03:10:14;3.50;;;0.87;;
16484;SDS011;8353;47.856;12.344;2023-11-21T03:13:02;3.70;;;1.07;;
16484;SDS011;8353;47.856;12.344;2023-11-21T03:15:49;1.67;;;0.77;;
16484;SDS011;8353;47.856;12.344;2023-11-21T03:18:36;0.80;;;0.70;;
16484;SDS011;8353;47.856;12.344;2023-11-21T03:21:23;3.30;;;1.10;;
16484;SDS011;8353;47.856;12.344;2023-11-21T03:24:10;1.00;;;0.90;;
16484;SDS011;8353;47.856;12.344;2023-11-21T03:26:56;2.47;;;1.00;;
16484;SDS011;8353;47.856;12.344;2023-11-21T03:29:44;2.33;;;0.80;;
16484;SDS011;8353;47.856;12.344;2023-11-21T03:32:33;2.10;;;0.90;;
16484;SDS011;8353;47.856;12.344;2023-11-21T03:35:20;3.50;;;1.43;;
16484;SDS011;8353;47.856;12.344;2023-11-21T03:38:07;1.90;;;0.80;;
16484;SDS011;8353;47.856;12.344;2023-11-21T03:40:55;4.33;;;1.43;;
16484;SDS011;8353;47.856;12.344;2023-11-21T03:43:42;2.97;;;1.20;;
16484;SDS011;8353;47.856;12.344;2023-11-21T03:46:30;3.73;;;1.63;;
16484;SDS011;8353;47.856;12.344;2023-11-21T03:49:17;3.47;;;1.20;;
16484;SDS011;8353;47.856;12.344;2023-11-21T03:52:04;4.00;;;1.63;;
16484;SDS011;8353;47.856;12.344;2023-11-21T03:54:52;5.13;;;1.77;;
16484;SDS011;8353;47.856;12.344;2023-11-21T03:57:40;3.50;;;1.10;;
16484;SDS011;8353;47.856;12.344;2023-11-21T04:00:27;1.43;;;0.90;;
16484;SDS011;8353;47.856;12.344;2023-11-21T04:03:15;2.67;;;0.90;;
16484;SDS011;8353;47.856;12.344;2023-11-21T04:06:02;4.23;;;1.80;;
16484;SDS011;8353;47.856;12.344;2023-11-21T04:08:51;2.37;;;1.20;;
16484;SDS011;8353;47.856;12.344;2023-11-21T04:11:38;1.80;;;1.00;;
16484;SDS011;8353;47.856;12.344;2023-11-21T04:14:25;4.37;;;1.37;;
16484;SDS011;8353;47.856;12.344;2023-11-21T04:17:11;2.63;;;1.10;;
16484;SDS011;8353;47.856;12.344;2023-11-21T04:19:59;6.93;;;2.00;;
16484;SDS011;8353;47.856;12.344;2023-11-21T04:22:46;1.60;;;1.00;;
16484;SDS011;8353;47.856;12.344;2023-11-21T04:25:33;2.63;;;1.30;;
16484;SDS011;8353;47.856;12.344;2023-11-21T04:28:20;3.60;;;1.20;;
16484;SDS011;8353;47.856;12.344;2023-11-21T04:31:07;2.17;;;1.07;;
16484;SDS011;8353;47.856;12.344;2023-11-21T04:33:54;4.10;;;1.63;;
16484;SDS011;8353;47.856;12.344;2023-11-21T04:36:42;4.47;;;1.50;;
16484;SDS011;8353;47.856;12.344;2023-11-21T04:39:29;2.80;;;1.50;;
16484;SDS011;8353;47.856;12.344;2023-11-21T04:42:16;4.50;;;1.83;;
16484;SDS011;8353;47.856;12.344;2023-11-21T04:45:03;4.10;;;1.20;;
16484;SDS011;8353;47.856;12.344;2023-11-21T04:47:53;5.40;;;1.83;;
16484;SDS011;8353;47.856;12.344;2023-11-21T04:50:41;2.13;;;1.07;;
16484;SDS011;8353;47.856;12.344;2023-11-21T04:53:29;7.40;;;1.50;;
16484;SDS011;8353;47.856;12.344;2023-11-21T04:56:16;2.77;;;1.23;;
16484;SDS011;8353;47.856;12.344;2023-11-21T04:59:02;3.93;;;1.70;;
16484;SDS011;8353;47.856;12.344;2023-11-21T05:01:49;5.13;;;2.23;;
16484;SDS011;8353;47.856;12.344;2023-11-21T05:04:36;4.10;;;1.17;;
16484;SDS011;8353;47.856;12.344;2023-11-21T05:07:23;3.63;;;1.47;;
16484;SDS011;8353;47.856;12.344;2023-11-21T05:10:14;2.70;;;1.10;;
16484;SDS011;8353;47.856;12.344;2023-11-21T05:13:01;1.97;;;1.37;;
16484;SDS011;8353;47.856;12.344;2023-11-21T05:15:49;2.53;;;1.20;;
16484;SDS011;8353;47.856;12.344;2023-11-21T05:18:36;1.73;;;1.30;;
16484;SDS011;8353;47.856;12.344;2023-11-21T05:21:22;3.60;;;1.30;;
16484;SDS011;8353;47.856;12.344;2023-11-21T05:24:09;2.97;;;1.40;;
16484;SDS011;8353;47.856;12.344;2023-11-21T05:26:58;2.93;;;1.53;;
16484;SDS011;8353;47.856;12.344;2023-11-21T05:29:44;3.33;;;1.70;;
16484;SDS011;8353;47.856;12.344;2023-11-21T05:32:31;2.17;;;1.30;;
16484;SDS011;8353;47.856;12.344;2023-11-21T05:35:18;3.67;;;1.63;;
16484;SDS011;8353;47.856;12.344;2023-11-21T05:38:06;1.50;;;1.30;;
16484;SDS011;8353;47.856;12.344;2023-11-21T05:40:53;1.83;;;1.00;;
16484;SDS011;8353;47.856;12.344;2023-11-21T05:43:41;5.40;;;2.40;;
16484;SDS011;8353;47.856;12.344;2023-11-21T05:46:28;1.73;;;1.30;;
16484;SDS011;8353;47.856;12.344;2023-11-21T05:49:14;2.53;;;1.83;;
16484;SDS011;8353;47.856;12.344;2023-11-21T05:52:02;2.37;;;1.80;;
16484;SDS011;8353;47.856;12.344;2023-11-21T05:54:50;5.83;;;2.47;;
16484;SDS011;8353;47.856;12.344;2023-11-21T05:57:40;3.13;;;1.90;;
16484;SDS011;8353;47.856;12.344;2023-11-21T06:00:29;3.33;;;1.60;;
16484;SDS011;8353;47.856;12.344;2023-11-21T06:03:17;3.33;;;1.70;;
16484;SDS011;8353;47.856;12.344;2023-11-21T06:06:04;3.20;;;1.70;;
16484;SDS011;8353;47.856;12.344;2023-11-21T06:08:51;2.37;;;1.67;;
16484;SDS011;8353;47.856;12.344;2023-11-21T06:11:38;3.20;;;1.43;;
16484;SDS011;8353;47.856;12.344;2023-11-21T06:14:25;3.07;;;2.43;;
16484;SDS011;8353;47.856;12.344;2023-11-21T06:17:13;5.20;;;3.10;;
16484;SDS011;8353;47.856;12.344;2023-11-21T06:20:00;5.10;;;2.60;;
16484;SDS011;8353;47.856;12.344;2023-11-21T06:22:49;3.40;;;2.43;;
16484;SDS011;8353;47.856;12.344;2023-11-21T06:25:36;7.07;;;3.77;;
16484;SDS011;8353;47.856;12.344;2023-11-21T06:28:23;4.73;;;2.83;;
16484;SDS011;8353;47.856;12.344;2023-11-21T06:31:09;10.10;;;5.63;;
16484;SDS011;8353;47.856;12.344;2023-11-21T06:33:58;6.07;;;3.93;;
16484;SDS011;8353;47.856;12.344;2023-11-21T06:36:45;4.43;;;2.30;;
16484;SDS011;8353;47.856;12.344;2023-11-21T06:39:32;8.47;;;4.97;;
16484;SDS011;8353;47.856;12.344;2023-11-21T06:42:19;8.67;;;3.73;;
16484;SDS011;8353;47.856;12.344;2023-11-21T06:45:06;6.10;;;2.93;;
16484;SDS011;8353;47.856;12.344;2023-11-21T06:47:55;3.43;;;1.90;;
16484;SDS011;8353;47.856;12.344;2023-11-21T06:50:43;2.13;;;1.70;;
16484;SDS011;8353;47.856;12.344;2023-11-21T06:53:31;3.83;;;2.47;;
16484;SDS011;8353;47.856;12.344;2023-11-21T06:56:18;8.30;;;4.27;;
16484;SDS011;8353;47.856;12.344;2023-11-21T06:59:05;9.97;;;6.53;;
16484;SDS011;8353;47.856;12.344;2023-11-21T07:01:52;7.83;;;4.50;;
16484;SDS011;8353;47.856;12.344;2023-11-21T07:04:39;12.17;;;6.63;;
16484;SDS011;8353;47.856;12.344;2023-11-21T07:07:27;8.10;;;5.30;;
16484;SDS011;8353;47.856;12.344;2023-11-21T07:10:14;6.83;;;4.10;;
16484;SDS011;8353;47.856;12.344;2023-11-21T07:13:02;7.60;;;4.30;;
16484;SDS011;8353;47.856;12.344;2023-11-21T07:15:48;5.47;;;3.97;;
16484;SDS011;8353;47.856;12.344;2023-11-21T07:18:35;5.27;;;3.50;;
16484;SDS011;8353;47.856;12.344;2023-11-21T07:21:22;4.87;;;2.47;;
16484;SDS011;8353;47.856;12.344;2023-11-21T07:24:11;5.80;;;2.83;;
16484;SDS011;8353;47.856;12.344;2023-11-21T07:26:57;5.97;;;2.70;;
16484;SDS011;8353;47.856;12.344;2023-11-21T07:29:44;3.50;;;2.10;;
16484;SDS011;8353;47.856;12.344;2023-11-21T07:32:31;3.93;;;1.90;;
16484;SDS011;8353;47.856;12.344;2023-11-21T07:35:18;2.90;;;1.93;;
16484;SDS011;8353;47.856;12.344;2023-11-21T07:38:05;6.13;;;2.40;;
16484;SDS011;8353;47.856;12.344;2023-11-21T07:40:54;5.80;;;3.23;;
16484;SDS011;8353;47.856;12.344;2023-11-21T07:43:41;6.77;;;3.43;;
16484;SDS011;8353;47.856;12.344;2023-11-21T07:46:28;4.20;;;2.40;;
16484;SDS011;8353;47.856;12.344;2023-11-21T07:49:15;4.40;;;2.73;;
16484;SDS011;8353;47.856;12.344;2023-11-21T07:52:05;4.50;;;3.03;;
16484;SDS011;8353;47.856;12.344;2023-11-21T07:54:52;5.27;;;3.03;;
16484;SDS011;8353;47.856;12.344;2023-11-21T07:57:40;5.60;;;2.60;;
16484;SDS011;8353;47.856;12.344;2023-11-21T08:00:27;2.73;;;2.13;;
16484;SDS011;8353;47.856;12.344;2023-11-21T08:03:15;6.90;;;2.90;;
16484;SDS011;8353;47.856;12.344;2023-11-21T08:06:02;3.63;;;2.37;;
16484;SDS011;8353;47.856;12.344;2023-11-21T08:08:50;5.20;;;2.40;;
16484;SDS011;8353;47.856;12.344;2023-11-21T08:11:37;2.93;;;1.70;;
16484;SDS011;8353;47.856;12.344;2023-11-21T08:14:25;6.50;;;2.53;;
16484;SDS011;8353;47.856;12.344;2023-11-21T08:17:12;5.43;;;2.67;;
16484;SDS011;8353;47.856;12.344;2023-11-21T08:19:59;4.97;;;2.30;;
16484;SDS011;8353;47.856;12.344;2023-11-21T08:22:47;4.57;;;2.63;;
16484;SDS011;8353;47.856;12.344;2023-11-21T08:25:34;2.47;;;1.87;;
16484;SDS011;8353;47.856;12.344;2023-11-21T08:28:20;5.77;;;2.20;;
16484;SDS011;8353;47.856;12.344;2023-11-21T08:31:09;8.90;;;4.80;;
16484;SDS011;8353;47.856;12.344;2023-11-21T08:33:56;4.37;;;3.17;;
16484;SDS011;8353;47.856;12.344;2023-11-21T08:36:43;6.57;;;3.87;;
16484;SDS011;8353;47.856;12.344;2023-11-21T08:39:30;14.77;;;11.10;;
16484;SDS011;8353;47.856;12.344;2023-11-21T08:42:17;5.70;;;4.53;;
16484;SDS011;8353;47.856;12.344;2023-11-21T08:45:04;3.93;;;3.30;;
16484;SDS011;8353;47.856;12.344;2023-11-21T08:47:55;3.87;;;3.47;;
16484;SDS011;8353;47.856;12.344;2023-11-21T08:50:42;9.17;;;8.23;;
16484;SDS011;8353;47.856;12.344;2023-11-21T08:53:28;5.50;;;4.87;;
16484;SDS011;8353;47.856;12.344;2023-11-21T08:56:16;2.70;;;2.50;;
16484;SDS011;8353;47.856;12.344;2023-11-21T08:59:03;3.20;;;2.30;;
16484;SDS011;8353;47.856;12.344;2023-11-21T09:01:50;3.07;;;2.10;;
16484;SDS011;8353;47.856;12.344;2023-11-21T09:04:38;2.63;;;1.80;;
16484;SDS011;8353;47.856;12.344;2023-11-21T09:07:25;3.17;;;2.87;;
16484;SDS011;8353;47.856;12.344;2023-11-21T09:10:12;3.57;;;2.50;;
16484;SDS011;8353;47.856;12.344;2023-11-21T09:12:59;3.30;;;2.50;;
16484;SDS011;8353;47.856;12.344;2023-11-21T09:15:46;4.60;;;3.23;;
16484;SDS011;8353;47.856;12.344;2023-11-21T09:18:34;5.13;;;3.00;;
16484;SDS011;8353;47.856;12.344;2023-11-21T09:21:23;3.30;;;2.27;;
16484;SDS011;8353;47.856;12.344;2023-11-21T09:24:10;3.30;;;1.50;;
16484;SDS011;8353;47.856;12.344;2023-11-21T09:26:57;4.33;;;2.30;;
16484;SDS011;8353;47.856;12.344;2023-11-21T09:29:45;4.10;;;2.10;;
16484;SDS011;8353;47.856;12.344;2023-11-21T09:32:32;3.73;;;1.37;;
16484;SDS011;8353;47.856;12.344;2023-11-21T09:35:20;5.10;;;1.60;;
16484;SDS011;8353;47.856;12.344;2023-11-21T09:38:08;3.27;;;1.53;;
16484;SDS011;8353;47.856;12.344;2023-11-21T09:40:56;5.37;;;3.03;;
16484;SDS011;8353;47.856;12.344;2023-11-21T09:43:44;4.13;;;3.10;;
16484;SDS011;8353;47.856;12.344;2023-11-21T09:46:32;2.37;;;1.70;;
16484;SDS011;8353;47.856;12.344;2023-11-21T09:49:20;2.30;;;1.67;;
16484;SDS011;8353;47.856;12.344;2023-11-21T09:52:10;2.63;;;1.90;;
16484;SDS011;8353;47.856;12.344;2023-11-21T09:55:06;7.37;;;4.30;;
16484;SDS011;8353;47.856;12.344;2023-11-21T09:57:54;6.83;;;5.10;;
16484;SDS011;8353;47.856;12.344;2023-11-21T10:00:43;2.63;;;1.67;;
16484;SDS011;8353;47.856;12.344;2023-11-21T10:03:31;4.57;;;2.17;;
16484;SDS011;8353;47.856;12.344;2023-11-21T10:06:21;2.47;;;1.37;;
16484;SDS011;8353;47.856;12.344;2023-11-21T10:09:10;4.23;;;2.40;;
16484;SDS011;8353;47.856;12.344;2023-11-21T10:11:59;8.43;;;5.03;;
16484;SDS011;8353;47.856;12.344;2023-11-21T10:14:48;4.20;;;2.73;;
16484;SDS011;8353;47.856;12.344;2023-11-21T10:17:38;3.27;;;1.67;;
16484;SDS011;8353;47.856;12.344;2023-11-21T10:20:28;1.53;;;1.20;;
16484;SDS011;8353;47.856;12.344;2023-11-21T10:23:15;2.53;;;1.60;;
16484;SDS011;8353;47.856;12.344;2023-11-21T10:26:02;4.30;;;1.40;;
16484;SDS011;8353;47.856;12.344;2023-11-21T10:28:58;1.93;;;1.57;;
16484;SDS011;8353;47.856;12.344;2023-11-21T10:31:48;3.67;;;1.50;;
16484;SDS011;8353;47.856;12.344;2023-11-21T10:34:35;3.67;;;2.20;;
16484;SDS011;8353;47.856;12.344;2023-11-21T10:37:23;3.80;;;2.40;;
16484;SDS011;8353;47.856;12.344;2023-11-21T10:40:10;1.90;;;1.50;;
16484;SDS011;8353;47.856;12.344;2023-11-21T10:43:01;3.47;;;1.73;;
16484;SDS011;8353;47.856;12.344;2023-11-21T10:45:55;4.10;;;2.20;;
16484;SDS011;8353;47.856;12.344;2023-11-21T10:48:44;2.47;;;1.57;;
16484;SDS011;8353;47.856;12.344;2023-11-21T10:51:31;3.20;;;1.37;;
16484;SDS011;8353;47.856;12.344;2023-11-21T10:54:19;2.17;;;1.50;;
16484;SDS011;8353;47.856;12.344;2023-11-21T10:57:06;2.27;;;1.77;;
16484;SDS011;8353;47.856;12.344;2023-11-21T10:59:54;2.20;;;1.37;;
16484;SDS011;8353;47.856;12.344;2023-11-21T11:02:42;2.30;;;1.67;;
16484;SDS011;8353;47.856;12.344;2023-11-21T11:05:29;1.63;;;1.47;;
16484;SDS011;8353;47.856;12.344;2023-11-21T11:08:17;2.83;;;1.30;;
16484;SDS011;8353;47.856;12.344;2023-11-21T11:11:11;1.80;;;1.10;;
16484;SDS011;8353;47.856;12.344;2023-11-21T11:13:59;3.07;;;1.53;;
16484;SDS011;8353;47.856;12.344;2023-11-21T11:16:46;2.97;;;1.27;;
16484;SDS011;8353;47.856;12.344;2023-11-21T11:19:35;1.07;;;0.87;;
16484;SDS011;8353;47.856;12.344;2023-11-21T11:22:25;1.27;;;1.07;;
16484;SDS011;8353;47.856;12.344;2023-11-21T11:25:29;1.93;;;1.10;;
16484;SDS011;8353;47.856;12.344;2023-11-21T11:28:34;1.87;;;1.27;;
16484;SDS011;8353;47.856;12.344;2023-11-21T11:31:33;1.53;;;1.13;;
16484;SDS011;8353;47.856;12.344;2023-11-21T11:34:28;0.93;;;0.80;;
16484;SDS011;8353;47.856;12.344;2023-11-21T11:37:19;1.30;;;1.10;;
16484;SDS011;8353;47.856;12.344;2023-11-21T11:40:07;1.57;;;1.20;;
16484;SDS011;8353;47.856;12.344;2023-11-21T11:42:57;1.83;;;1.13;;
16484;SDS011;8353;47.856;12.344;2023-11-21T11:45:47;3.33;;;1.30;;
16484;SDS011;8353;47.856;12.344;2023-11-21T11:48:37;2.10;;;1.00;;
16484;SDS011;8353;47.856;12.344;2023-11-21T11:51:25;1.80;;;1.13;;
16484;SDS011;8353;47.856;12.344;2023-11-21T11:54:13;1.23;;;1.13;;
16484;SDS011;8353;47.856;12.344;2023-11-21T11:57:02;1.40;;;1.00;;
16484;SDS011;8353;47.856;12.344;2023-11-21T12:00:09;2.67;;;1.03;;
16484;SDS011;8353;47.856;12.344;2023-11-21T12:03:05;0.97;;;0.87;;
16484;SDS011;8353;47.856;12.344;2023-11-21T12:05:53;4.30;;;1.67;;
16484;SDS011;8353;47.856;12.344;2023-11-21T12:08:43;1.70;;;0.83;;
16484;SDS011;8353;47.856;12.344;2023-11-21T12:11:32;1.43;;;1.27;;
16484;SDS011;8353;47.856;12.344;2023-11-21T12:14:20;2.17;;;1.20;;
16484;SDS011;8353;47.856;12.344;2023-11-21T12:17:08;2.23;;;1.20;;
16484;SDS011;8353;47.856;12.344;2023-11-21T12:20:00;1.23;;;1.00;;
16484;SDS011;8353;47.856;12.344;2023-11-21T12:22:49;2.37;;;1.00;;
16484;SDS011;8353;47.856;12.344;2023-11-21T12:25:36;2.37;;;1.37;;
16484;SDS011;8353;47.856;12.344;2023-11-21T12:28:26;2.20;;;1.50;;
16484;SDS011;8353;47.856;12.344;2023-11-21T12:31:13;1.40;;;1.00;;
16484;SDS011;8353;47.856;12.344;2023-11-21T12:34:00;4.13;;;1.70;;
16484;SDS011;8353;47.856;12.344;2023-11-21T12:36:47;2.00;;;1.20;;
16484;SDS011;8353;47.856;12.344;2023-11-21T12:39:34;1.20;;;1.10;;
16484;SDS011;8353;47.856;12.344;2023-11-21T12:42:21;2.40;;;1.20;;
16484;SDS011;8353;47.856;12.344;2023-11-21T12:45:19;2.17;;;1.40;;
16484;SDS011;8353;47.856;12.344;2023-11-21T12:48:07;1.80;;;1.10;;
16484;SDS011;8353;47.856;12.344;2023-11-21T12:50:56;1.70;;;1.10;;
16484;SDS011;8353;47.856;12.344;2023-11-21T12:53:45;1.10;;;1.00;;
16484;SDS011;8353;47.856;12.344;2023-11-21T12:56:34;2.03;;;1.53;;
16484;SDS011;8353;47.856;12.344;2023-11-21T12:59:24;1.70;;;1.20;;
16484;SDS011;8353;47.856;12.344;2023-11-21T13:02:13;1.53;;;1.37;;
16484;SDS011;8353;47.856;12.344;2023-11-21T13:05:00;1.43;;;1.10;;
16484;SDS011;8353;47.856;12.344;2023-11-21T13:07:51;3.00;;;1.47;;
16484;SDS011;8353;47.856;12.344;2023-11-21T13:10:40;1.40;;;1.20;;
16484;SDS011;8353;47.856;12.344;2023-11-21T13:13:28;1.57;;;1.10;;
16484;SDS011;8353;47.856;12.344;2023-11-21T13:16:16;1.20;;;1.07;;
16484;SDS011;8353;47.856;12.344;2023-11-21T13:19:07;1.30;;;1.20;;
16484;SDS011;8353;47.856;12.344;2023-11-21T13:21:54;2.33;;;1.20;;
16484;SDS011;8353;47.856;12.344;2023-11-21T13:24:40;1.90;;;1.50;;
16484;SDS011;8353;47.856;12.344;2023-11-21T13:27:27;3.10;;;1.10;;
16484;SDS011;8353;47.856;12.344;2023-11-21T13:30:15;1.90;;;1.10;;
16484;SDS011;8353;47.856;12.344;2023-11-21T13:33:03;1.90;;;1.00;;
16484;SDS011;8353;47.856;12.344;2023-11-21T13:35:53;1.87;;;1.07;;
16484;SDS011;8353;47.856;12.344;2023-11-21T13:38:41;5.33;;;1.73;;
16484;SDS011;8353;47.856;12.344;2023-11-21T13:41:29;1.93;;;0.87;;
16484;SDS011;8353;47.856;12.344;2023-11-21T13:44:16;3.17;;;1.30;;
16484;SDS011;8353;47.856;12.344;2023-11-21T13:47:11;2.53;;;1.40;;
16484;SDS011;8353;47.856;12.344;2023-11-21T13:49:58;1.47;;;1.17;;
16484;SDS011;8353;47.856;12.344;2023-11-21T13:52:46;1.83;;;1.00;;
16484;SDS011;8353;47.856;12.344;2023-11-21T13:55:33;3.50;;;1.50;;
16484;SDS011;8353;47.856;12.344;2023-11-21T13:58:20;1.53;;;1.20;;
16484;SDS011;8353;47.856;12.344;2023-11-21T14:01:11;2.90;;;1.47;;
16484;SDS011;8353;47.856;12.344;2023-11-21T14:04:17;2.53;;;1.30;;
16484;SDS011;8353;47.856;12.344;2023-11-21T14:07:16;2.00;;;1.17;;
16484;SDS011;8353;47.856;12.344;2023-11-21T14:10:12;3.93;;;1.40;;
16484;SDS011;8353;47.856;12.344;2023-11-21T14:13:01;2.20;;;1.60;;
16484;SDS011;8353;47.856;12.344;2023-11-21T14:15:47;3.43;;;1.60;;
16484;SDS011;8353;47.856;12.344;2023-11-21T14:18:37;2.20;;;1.40;;
16484;SDS011;8353;47.856;12.344;2023-11-21T14:21:35;1.80;;;1.53;;
16484;SDS011;8353;47.856;12.344;2023-11-21T14:24:22;2.93;;;1.43;;
16484;SDS011;8353;47.856;12.344;2023-11-21T14:27:12;2.70;;;1.70;;
16484;SDS011;8353;47.856;12.344;2023-11-21T14:29:59;2.73;;;1.47;;
16484;SDS011;8353;47.856;12.344;2023-11-21T14:32:46;1.40;;;1.10;;
16484;SDS011;8353;47.856;12.344;2023-11-21T14:35:33;1.63;;;1.10;;
16484;SDS011;8353;47.856;12.344;2023-11-21T14:38:20;1.00;;;0.80;;
16484;SDS011;8353;47.856;12.344;2023-11-21T14:41:07;2.30;;;1.00;;
16484;SDS011;8353;47.856;12.344;2023-11-21T14:43:57;1.87;;;1.27;;
16484;SDS011;8353;47.856;12.344;2023-11-21T14:46:44;1.07;;;0.97;;
16484;SDS011;8353;47.856;12.344;2023-11-21T14:49:34;2.20;;;1.17;;
16484;SDS011;8353;47.856;12.344;2023-11-21T14:52:36;1.67;;;1.53;;
16484;SDS011;8353;47.856;12.344;2023-11-21T14:55:29;2.10;;;2.00;;
16484;SDS011;8353;47.856;12.344;2023-11-21T14:58:24;1.07;;;0.97;;
16484;SDS011;8353;47.856;12.344;2023-11-21T15:01:13;1.17;;;1.10;;
16484;SDS011;8353;47.856;12.344;2023-11-21T15:04:09;1.40;;;1.23;;
16484;SDS011;8353;47.856;12.344;2023-11-21T15:07:05;2.00;;;1.30;;
16484;SDS011;8353;47.856;12.344;2023-11-21T15:09:51;2.67;;;1.10;;
16484;SDS011;8353;47.856;12.344;2023-11-21T15:12:38;1.43;;;1.03;;
16484;SDS011;8353;47.856;12.344;2023-11-21T15:15:25;1.73;;;1.10;;
16484;SDS011;8353;47.856;12.344;2023-11-21T15:18:16;1.37;;;0.90;;
16484;SDS011;8353;47.856;12.344;2023-11-21T15:21:03;1.07;;;0.87;;
16484;SDS011;8353;47.856;12.344;2023-11-21T15:23:50;1.87;;;0.80;;
16484;SDS011;8353;47.856;12.344;2023-11-21T15:26:37;1.23;;;1.13;;
16484;SDS011;8353;47.856;12.344;2023-11-21T15:29:24;1.00;;;1.00;;
16484;SDS011;8353;47.856;12.344;2023-11-21T15:32:12;1.10;;;0.70;;
16484;SDS011;8353;47.856;12.344;2023-11-21T15:35:00;2.70;;;1.10;;
16484;SDS011;8353;47.856;12.344;2023-11-21T15:37:47;2.07;;;1.07;;
16484;SDS011;8353;47.856;12.344;2023-11-21T15:40:34;1.53;;;0.90;;
16484;SDS011;8353;47.856;12.344;2023-11-21T15:43:20;0.90;;;0.70;;
16484;SDS011;8353;47.856;12.344;2023-11-21T15:46:07;2.37;;;1.00;;
16484;SDS011;8353;47.856;12.344;2023-11-21T15:48:54;1.80;;;1.20;;
16484;SDS011;8353;47.856;12.344;2023-11-21T15:51:43;4.07;;;3.30;;
16484;SDS011;8353;47.856;12.344;2023-11-21T15:54:32;1.53;;;1.00;;
16484;SDS011;8353;47.856;12.344;2023-11-21T15:57:19;1.40;;;1.20;;
16484;SDS011;8353;47.856;12.344;2023-11-21T16:00:07;1.47;;;1.10;;
16484;SDS011;8353;47.856;12.344;2023-11-21T16:03:01;2.23;;;1.30;;
16484;SDS011;8353;47.856;12.344;2023-11-21T16:05:48;1.87;;;1.33;;
16484;SDS011;8353;47.856;12.344;2023-11-21T16:08:36;2.83;;;1.80;;
16484;SDS011;8353;47.856;12.344;2023-11-21T16:11:24;3.17;;;2.30;;
16484;SDS011;8353;47.856;12.344;2023-11-21T16:14:11;1.60;;;1.30;;
16484;SDS011;8353;47.856;12.344;2023-11-21T16:16:58;1.80;;;1.43;;
16484;SDS011;8353;47.856;12.344;2023-11-21T16:19:45;2.03;;;1.00;;
16484;SDS011;8353;47.856;12.344;2023-11-21T16:22:32;1.30;;;1.20;;
16484;SDS011;8353;47.856;12.344;2023-11-21T16:25:20;1.23;;;1.13;;
16484;SDS011;8353;47.856;12.344;2023-11-21T16:28:07;1.70;;;1.10;;
16484;SDS011;8353;47.856;12.344;2023-11-21T16:30:54;2.03;;;1.20;;
16484;SDS011;8353;47.856;12.344;2023-11-21T16:33:42;2.63;;;1.93;;
16484;SDS011;8353;47.856;12.344;2023-11-21T16:36:29;1.37;;;1.10;;
16484;SDS011;8353;47.856;12.344;2023-11-21T16:39:16;1.87;;;1.00;;
16484;SDS011;8353;47.856;12.344;2023-11-21T16:42:05;1.30;;;1.20;;
16484;SDS011;8353;47.856;12.344;2023-11-21T16:44:52;0.93;;;0.93;;
16484;SDS011;8353;47.856;12.344;2023-11-21T16:47:40;2.40;;;1.20;;
16484;SDS011;8353;47.856;12.344;2023-11-21T16:50:28;1.30;;;1.20;;
16484;SDS011;8353;47.856;12.344;2023-11-21T16:53:15;1.60;;;1.30;;